createdAt,value
2018-05-07T00:00:35.774Z,44.79
2018-05-07T00:01:16.301Z,44.59
2018-05-07T00:01:56.826Z,44.59
2018-05-07T00:02:37.347Z,44.59
2018-05-07T00:03:17.879Z,44.59
2018-05-07T00:03:58.405Z,44.59
2018-05-07T00:04:38.930Z,44.59
2018-05-07T00:05:19.460Z,44.79
2018-05-07T00:06:00.094Z,44.59
2018-05-07T00:06:40.509Z,44.79
2018-05-07T00:07:21.030Z,44.79
2018-05-07T00:08:01.554Z,44.79
2018-05-07T00:08:42.079Z,44.69
2018-05-07T00:09:22.598Z,44.69
2018-05-07T00:10:03.155Z,44.69
2018-05-07T00:10:43.656Z,44.79
2018-05-07T00:11:24.169Z,44.88
2018-05-07T00:12:04.695Z,44.79
2018-05-07T00:12:45.210Z,44.79
2018-05-07T00:13:25.756Z,44.69
2018-05-07T00:14:06.277Z,44.79
2018-05-07T00:14:46.763Z,44.69
2018-05-07T00:15:27.279Z,44.88
2018-05-07T00:16:07.809Z,44.79
2018-05-07T00:16:48.332Z,44.79
2018-05-07T00:17:28.856Z,44.79
2018-05-07T00:18:09.385Z,44.69
2018-05-07T00:18:49.915Z,44.67
2018-05-07T00:19:30.444Z,44.69
2018-05-07T00:20:10.943Z,44.69
2018-05-07T00:20:51.449Z,44.76
2018-05-07T00:21:31.964Z,44.48
2018-05-07T00:22:12.500Z,44.59
2018-05-07T00:22:53.014Z,44.95
2018-05-07T00:23:33.536Z,44.86
2018-05-07T00:24:14.066Z,44.57
2018-05-07T00:24:54.595Z,44.86
2018-05-07T00:25:35.116Z,44.67
2018-05-07T00:26:15.655Z,44.76
2018-05-07T00:26:56.180Z,44.76
2018-05-07T00:27:36.700Z,44.86
2018-05-07T00:28:17.225Z,44.95
2018-05-07T00:28:57.735Z,44.95
2018-05-07T00:29:38.256Z,44.76
2018-05-07T00:30:18.786Z,44.95
2018-05-07T00:30:59.308Z,44.86
2018-05-07T00:31:39.830Z,45.05
2018-05-07T00:32:20.375Z,44.76
2018-05-07T00:33:00.864Z,44.67
2018-05-07T00:33:41.393Z,45.15
2018-05-07T00:34:21.910Z,44.67
2018-05-07T00:35:02.441Z,44.57
2018-05-07T00:35:42.955Z,44.86
2018-05-07T00:36:23.487Z,44.67
2018-05-07T00:37:04.005Z,44.67
2018-05-07T00:37:44.538Z,45.15
2018-05-07T00:38:25.072Z,44.95
2018-05-07T00:39:05.597Z,44.67
2018-05-07T00:39:46.129Z,45.15
2018-05-07T00:40:26.644Z,45.15
2018-05-07T00:41:07.171Z,44.95
2018-05-07T00:41:47.703Z,44.95
2018-05-07T00:42:28.233Z,44.95
2018-05-07T00:43:08.762Z,44.86
2018-05-07T00:43:49.300Z,45.05
2018-05-07T00:44:29.817Z,44.95
2018-05-07T00:45:10.356Z,44.95
2018-05-07T00:45:50.861Z,44.95
2018-05-07T00:46:31.384Z,44.95
2018-05-07T00:47:11.915Z,44.67
2018-05-07T00:47:52.447Z,45.05
2018-05-07T00:48:32.974Z,44.76
2018-05-07T00:49:13.486Z,44.84
2018-05-07T00:49:54.015Z,44.76
2018-05-07T00:50:34.525Z,44.84
2018-05-07T00:51:15.049Z,44.84
2018-05-07T00:51:55.568Z,44.86
2018-05-07T00:52:36.090Z,44.84
2018-05-07T00:53:16.615Z,44.95
2018-05-07T00:53:57.132Z,45.03
2018-05-07T00:54:37.900Z,45.05
2018-05-07T00:55:18.426Z,45.22
2018-05-07T00:55:58.953Z,45.22
2018-05-07T00:56:39.474Z,45.22
2018-05-07T00:57:19.998Z,45.22
2018-05-07T00:58:00.528Z,45.22
2018-05-07T00:58:41.044Z,45.31
2018-05-07T00:59:21.573Z,45.51
2018-05-07T01:00:02.098Z,45.03
2018-05-07T01:00:42.627Z,45.51
2018-05-07T01:01:23.161Z,45.31
2018-05-07T01:02:03.689Z,45.31
2018-05-07T01:02:44.197Z,45.51
2018-05-07T01:03:24.732Z,44.93
2018-05-07T01:04:05.255Z,45.51
2018-05-07T01:04:45.777Z,44.93
2018-05-07T01:05:26.300Z,45.31
2018-05-07T01:06:06.830Z,45.31
2018-05-07T01:06:47.360Z,45.51
2018-05-07T01:07:27.883Z,45.51
2018-05-07T01:08:08.416Z,45.51
2018-05-07T01:08:48.941Z,45.31
2018-05-07T01:09:29.467Z,45.22
2018-05-07T01:10:09.989Z,45.31
2018-05-07T01:10:50.513Z,45.51
2018-05-07T01:11:31.032Z,45.41
2018-05-07T01:12:11.537Z,45.22
2018-05-07T01:12:52.149Z,45.51
2018-05-07T01:13:32.584Z,45.51
2018-05-07T01:14:13.106Z,45.41
2018-05-07T01:14:53.613Z,45.41
2018-05-07T01:15:34.141Z,45.31
2018-05-07T01:16:14.666Z,45.31
2018-05-07T01:16:55.189Z,45.31
2018-05-07T01:17:35.707Z,45.41
2018-05-07T01:18:16.235Z,45.22
2018-05-07T01:18:56.767Z,45.41
2018-05-07T01:19:37.291Z,45.31
2018-05-07T01:20:17.819Z,45.41
2018-05-07T01:20:58.355Z,45.31
2018-05-07T01:21:38.866Z,45.31
2018-05-07T01:22:19.380Z,45.12
2018-05-07T01:22:59.906Z,44.93
2018-05-07T01:23:40.428Z,45.22
2018-05-07T01:24:20.945Z,45.12
2018-05-07T01:25:01.469Z,45.22
2018-05-07T01:25:41.995Z,45.03
2018-05-07T01:26:22.513Z,45.12
2018-05-07T01:27:03.042Z,45.12
2018-05-07T01:27:43.562Z,45.12
2018-05-07T01:28:24.076Z,44.93
2018-05-07T01:29:04.591Z,44.93
2018-05-07T01:29:45.113Z,45.01
2018-05-07T01:30:25.630Z,45.12
2018-05-07T01:31:06.152Z,45.12
2018-05-07T01:31:46.672Z,45.1
2018-05-07T01:32:27.221Z,44.74
2018-05-07T01:33:07.692Z,44.93
2018-05-07T01:33:48.212Z,44.81
2018-05-07T01:34:28.738Z,45.2
2018-05-07T01:35:09.251Z,45.22
2018-05-07T01:35:49.771Z,45.2
2018-05-07T01:36:30.290Z,45.29
2018-05-07T01:37:10.817Z,45.1
2018-05-07T01:37:51.342Z,45.39
2018-05-07T01:38:31.864Z,45.48
2018-05-07T01:39:12.394Z,45.48
2018-05-07T01:39:52.918Z,45.48
2018-05-07T01:40:33.442Z,45.2
2018-05-07T01:41:13.952Z,45.29
2018-05-07T01:41:54.465Z,45.48
2018-05-07T01:42:34.973Z,45.39
2018-05-07T01:43:15.486Z,45.39
2018-05-07T01:43:56.009Z,45.48
2018-05-07T01:44:36.541Z,45.58
2018-05-07T01:45:17.059Z,45.58
2018-05-07T01:45:57.585Z,45.58
2018-05-07T01:46:38.102Z,45.48
2018-05-07T01:47:18.619Z,45.48
2018-05-07T01:47:59.143Z,45.58
2018-05-07T01:48:39.666Z,45.2
2018-05-07T01:49:20.199Z,45.58
2018-05-07T01:50:00.709Z,45.58
2018-05-07T01:50:41.223Z,45.48
2018-05-07T01:51:21.736Z,45.58
2018-05-07T01:52:02.252Z,45.58
2018-05-07T01:52:42.793Z,45.58
2018-05-07T01:53:23.296Z,45.48
2018-05-07T01:54:03.823Z,45.58
2018-05-07T01:54:44.474Z,45.58
2018-05-07T01:55:24.997Z,45.58
2018-05-07T01:56:05.543Z,45.39
2018-05-07T01:56:46.062Z,45.48
2018-05-07T01:57:26.583Z,45.2
2018-05-07T01:58:07.128Z,45.58
2018-05-07T01:58:47.657Z,45.2
2018-05-07T01:59:28.178Z,45.39
2018-05-07T02:00:08.702Z,45.29
2018-05-07T02:00:49.217Z,45.29
2018-05-07T02:01:29.751Z,45.39
2018-05-07T02:02:10.272Z,45.29
2018-05-07T02:02:50.788Z,45.48
2018-05-07T02:03:31.312Z,45.39
2018-05-07T02:04:11.816Z,45.48
2018-05-07T02:04:52.337Z,45.48
2018-05-07T02:05:32.859Z,45.48
2018-05-07T02:06:13.376Z,45.39
2018-05-07T02:06:53.910Z,45.2
2018-05-07T02:07:34.425Z,45.39
2018-05-07T02:08:14.952Z,45.39
2018-05-07T02:08:55.473Z,45.39
2018-05-07T02:09:36.006Z,45.39
2018-05-07T02:10:16.517Z,45.39
2018-05-07T02:10:57.046Z,45.58
2018-05-07T02:11:37.580Z,45.39
2018-05-07T02:12:18.096Z,45.67
2018-05-07T02:12:58.617Z,45.29
2018-05-07T02:13:39.148Z,45.67
2018-05-07T02:14:19.669Z,45.67
2018-05-07T02:15:00.193Z,45.77
2018-05-07T02:15:40.718Z,45.75
2018-05-07T02:16:21.245Z,45.65
2018-05-07T02:17:01.766Z,45.67
2018-05-07T02:17:42.292Z,45.77
2018-05-07T02:18:22.839Z,45.77
2018-05-07T02:19:03.343Z,45.56
2018-05-07T02:19:43.867Z,45.77
2018-05-07T02:20:24.392Z,45.58
2018-05-07T02:21:04.935Z,45.56
2018-05-07T02:21:45.448Z,45.65
2018-05-07T02:22:25.969Z,45.56
2018-05-07T02:23:06.500Z,45.75
2018-05-07T02:23:47.026Z,45.65
2018-05-07T02:24:27.565Z,45.65
2018-05-07T02:25:08.081Z,45.75
2018-05-07T02:25:48.599Z,45.65
2018-05-07T02:26:29.126Z,45.75
2018-05-07T02:27:09.671Z,45.75
2018-05-07T02:27:50.178Z,45.94
2018-05-07T02:28:30.702Z,45.94
2018-05-07T02:29:11.221Z,45.75
2018-05-07T02:29:51.737Z,45.75
2018-05-07T02:30:32.253Z,45.75
2018-05-07T02:31:12.782Z,45.65
2018-05-07T02:31:53.307Z,45.75
2018-05-07T02:32:33.823Z,45.75
2018-05-07T02:33:14.346Z,45.84
2018-05-07T02:33:54.876Z,45.75
2018-05-07T02:34:35.395Z,45.75
2018-05-07T02:35:15.932Z,45.84
2018-05-07T02:35:56.451Z,45.75
2018-05-07T02:36:36.977Z,45.94
2018-05-07T02:37:17.501Z,46.03
2018-05-07T02:37:58.028Z,45.84
2018-05-07T02:38:38.553Z,46.13
2018-05-07T02:39:19.074Z,45.94
2018-05-07T02:39:59.584Z,45.94
2018-05-07T02:40:40.098Z,46.03
2018-05-07T02:41:20.615Z,46.03
2018-05-07T02:42:01.136Z,45.94
2018-05-07T02:42:41.659Z,45.94
2018-05-07T02:43:22.188Z,45.94
2018-05-07T02:44:02.715Z,45.84
2018-05-07T02:44:43.248Z,45.75
2018-05-07T02:45:23.747Z,45.84
2018-05-07T02:46:04.251Z,45.94
2018-05-07T02:46:44.743Z,45.94
2018-05-07T02:47:25.264Z,45.94
2018-05-07T02:48:05.756Z,45.84
2018-05-07T02:48:46.285Z,46.03
2018-05-07T02:49:26.793Z,45.94
2018-05-07T02:50:07.313Z,45.75
2018-05-07T02:50:47.844Z,45.75
2018-05-07T02:51:28.364Z,45.75
2018-05-07T02:52:08.878Z,45.84
2018-05-07T02:52:49.371Z,45.75
2018-05-07T02:53:29.972Z,45.94
2018-05-07T02:54:10.403Z,45.75
2018-05-07T02:54:50.963Z,45.65
2018-05-07T02:55:31.450Z,45.75
2018-05-07T02:56:11.952Z,45.75
2018-05-07T02:56:52.481Z,45.72
2018-05-07T02:57:32.994Z,45.82
2018-05-07T02:58:13.593Z,45.65
2018-05-07T02:58:54.013Z,45.82
2018-05-07T02:59:34.543Z,45.65
2018-05-07T03:00:15.051Z,45.82
2018-05-07T03:00:55.566Z,45.82
2018-05-07T03:01:36.070Z,46.11
2018-05-07T03:02:16.595Z,46.01
2018-05-07T03:02:57.102Z,45.82
2018-05-07T03:03:37.631Z,45.92
2018-05-07T03:04:18.161Z,46.01
2018-05-07T03:04:58.681Z,45.82
2018-05-07T03:05:39.206Z,46.11
2018-05-07T03:06:19.729Z,45.92
2018-05-07T03:07:00.256Z,46.11
2018-05-07T03:07:40.784Z,46.01
2018-05-07T03:08:21.331Z,46.01
2018-05-07T03:09:01.849Z,46.01
2018-05-07T03:09:42.401Z,46.01
2018-05-07T03:10:22.932Z,46.01
2018-05-07T03:11:03.460Z,46.01
2018-05-07T03:11:43.991Z,46.01
2018-05-07T03:12:24.524Z,46.11
2018-05-07T03:13:05.046Z,45.82
2018-05-07T03:13:45.574Z,46.01
2018-05-07T03:14:26.125Z,46.11
2018-05-07T03:15:06.651Z,46.01
2018-05-07T03:15:47.177Z,45.92
2018-05-07T03:16:27.704Z,46.11
2018-05-07T03:17:08.282Z,46.11
2018-05-07T03:17:48.804Z,46.01
2018-05-07T03:18:29.320Z,46.2
2018-05-07T03:19:09.852Z,45.92
2018-05-07T03:19:50.364Z,45.92
2018-05-07T03:20:30.891Z,46.2
2018-05-07T03:21:11.385Z,46.2
2018-05-07T03:21:51.895Z,46.2
2018-05-07T03:22:32.400Z,46.11
2018-05-07T03:23:12.931Z,46.11
2018-05-07T03:23:53.429Z,45.92
2018-05-07T03:24:33.961Z,46.11
2018-05-07T03:25:14.483Z,46.11
2018-05-07T03:25:55.000Z,46.2
2018-05-07T03:26:35.521Z,46.3
2018-05-07T03:27:16.044Z,46.2
2018-05-07T03:27:56.574Z,46.3
2018-05-07T03:28:37.375Z,46.2
2018-05-07T03:29:17.902Z,46.3
2018-05-07T03:29:58.422Z,46.48
2018-05-07T03:30:38.943Z,46.58
2018-05-07T03:31:19.672Z,46.58
2018-05-07T03:32:00.677Z,46.58
2018-05-07T03:32:41.293Z,46.58
2018-05-07T03:33:22.538Z,46.68
2018-05-07T03:34:02.981Z,46.3
2018-05-07T03:34:43.614Z,46.48
2018-05-07T03:35:24.206Z,46.11
2018-05-07T03:36:04.742Z,46.11
2018-05-07T03:36:45.326Z,46.2
2018-05-07T03:37:26.819Z,46.2
2018-05-07T03:38:07.841Z,46.2
2018-05-07T03:38:48.051Z,46.2
2018-05-07T03:39:29.094Z,46.11
2018-05-07T03:40:09.767Z,46.11
2018-05-07T03:40:50.320Z,46.01
2018-05-07T03:41:30.848Z,46.11
2018-05-07T03:42:12.360Z,46.11
2018-05-07T03:42:54.326Z,46.11
2018-05-07T03:43:33.622Z,46.2
2018-05-07T03:44:14.081Z,46.11
2018-05-07T03:44:54.558Z,46.2
2018-05-07T03:45:35.036Z,46.11
2018-05-07T03:46:15.524Z,46.11
2018-05-07T03:46:56.043Z,46.11
2018-05-07T03:47:36.528Z,46.3
2018-05-07T03:48:17.043Z,46.11
2018-05-07T03:48:57.502Z,46.01
2018-05-07T03:49:38.006Z,46.39
2018-05-07T03:50:18.524Z,46.3
2018-05-07T03:50:59.044Z,46.37
2018-05-07T03:51:39.557Z,46.47
2018-05-07T03:52:20.084Z,46.66
2018-05-07T03:53:00.605Z,46.66
2018-05-07T03:53:41.160Z,46.47
2018-05-07T03:54:21.827Z,46.37
2018-05-07T03:55:02.336Z,46.47
2018-05-07T03:55:42.888Z,46.56
2018-05-07T03:56:23.382Z,46.56
2018-05-07T03:57:03.888Z,46.75
2018-05-07T03:57:44.407Z,46.47
2018-05-07T03:58:24.931Z,46.47
2018-05-07T03:59:05.481Z,46.56
2018-05-07T03:59:46.034Z,46.56
2018-05-07T04:00:26.485Z,46.56
2018-05-07T04:01:07.007Z,46.56
2018-05-07T04:01:47.544Z,46.27
2018-05-07T04:02:28.064Z,46.56
2018-05-07T04:03:08.585Z,46.37
2018-05-07T04:03:49.106Z,46.27
2018-05-07T04:04:29.637Z,46.18
2018-05-07T04:05:10.171Z,46.18
2018-05-07T04:05:50.703Z,46.18
2018-05-07T04:06:31.233Z,46.08
2018-05-07T04:07:11.746Z,45.92
2018-05-07T04:07:52.272Z,45.92
2018-05-07T04:08:32.794Z,45.92
2018-05-07T04:09:13.327Z,46.3
2018-05-07T04:09:53.848Z,46.2
2018-05-07T04:10:34.380Z,46.2
2018-05-07T04:11:14.900Z,46.2
2018-05-07T04:11:55.430Z,46.2
2018-05-07T04:12:35.950Z,46.01
2018-05-07T04:13:16.544Z,46.01
2018-05-07T04:13:57.003Z,46.01
2018-05-07T04:14:37.532Z,46.01
2018-05-07T04:15:18.058Z,45.72
2018-05-07T04:15:58.571Z,46.2
2018-05-07T04:16:39.095Z,45.63
2018-05-07T04:17:19.628Z,45.63
2018-05-07T04:18:00.154Z,46.01
2018-05-07T04:18:40.685Z,46.01
2018-05-07T04:19:21.211Z,45.72
2018-05-07T04:20:01.746Z,46.01
2018-05-07T04:20:42.266Z,46.11
2018-05-07T04:21:22.782Z,46.01
2018-05-07T04:22:03.307Z,46.01
2018-05-07T04:22:43.842Z,45.72
2018-05-07T04:23:24.367Z,46.11
2018-05-07T04:24:04.891Z,46.11
2018-05-07T04:24:45.419Z,46.11
2018-05-07T04:25:25.948Z,46.01
2018-05-07T04:26:06.475Z,45.82
2018-05-07T04:26:47.003Z,46.01
2018-05-07T04:27:27.530Z,45.82
2018-05-07T04:28:08.050Z,45.72
2018-05-07T04:28:48.571Z,45.82
2018-05-07T04:29:29.101Z,45.63
2018-05-07T04:30:09.667Z,45.82
2018-05-07T04:30:50.158Z,45.72
2018-05-07T04:31:30.690Z,45.63
2018-05-07T04:32:11.258Z,45.92
2018-05-07T04:32:51.732Z,45.82
2018-05-07T04:33:32.254Z,45.82
2018-05-07T04:34:12.782Z,45.82
2018-05-07T04:34:53.306Z,45.72
2018-05-07T04:35:33.836Z,46.01
2018-05-07T04:36:14.360Z,46.01
2018-05-07T04:36:54.889Z,45.82
2018-05-07T04:37:35.415Z,45.92
2018-05-07T04:38:15.939Z,45.82
2018-05-07T04:38:56.465Z,45.82
2018-05-07T04:39:36.980Z,46.01
2018-05-07T04:40:17.509Z,46.11
2018-05-07T04:40:58.038Z,46.11
2018-05-07T04:41:38.557Z,45.72
2018-05-07T04:42:19.085Z,45.92
2018-05-07T04:42:59.610Z,45.92
2018-05-07T04:43:40.140Z,45.82
2018-05-07T04:44:20.668Z,46.11
2018-05-07T04:45:01.201Z,46.01
2018-05-07T04:45:41.717Z,46.01
2018-05-07T04:46:22.242Z,46.11
2018-05-07T04:47:02.766Z,45.82
2018-05-07T04:47:43.289Z,45.72
2018-05-07T04:48:23.806Z,45.92
2018-05-07T04:49:04.317Z,45.72
2018-05-07T04:49:44.838Z,45.92
2018-05-07T04:50:25.362Z,45.72
2018-05-07T04:51:05.888Z,45.75
2018-05-07T04:51:46.416Z,45.65
2018-05-07T04:52:26.947Z,45.56
2018-05-07T04:53:07.462Z,45.65
2018-05-07T04:53:48.064Z,45.65
2018-05-07T04:54:28.518Z,45.72
2018-05-07T04:55:09.147Z,45.75
2018-05-07T04:55:49.561Z,45.65
2018-05-07T04:56:30.093Z,45.37
2018-05-07T04:57:10.619Z,45.37
2018-05-07T04:57:51.141Z,45.46
2018-05-07T04:58:31.668Z,45.37
2018-05-07T04:59:12.186Z,45.37
2018-05-07T04:59:52.720Z,45.27
2018-05-07T05:00:33.247Z,45.46
2018-05-07T05:01:13.775Z,45.56
2018-05-07T05:01:54.281Z,45.65
2018-05-07T05:02:34.836Z,45.27
2018-05-07T05:03:15.350Z,45.37
2018-05-07T05:03:55.884Z,45.17
2018-05-07T05:04:36.403Z,45.08
2018-05-07T05:05:16.929Z,45.08
2018-05-07T05:05:57.459Z,45.2
2018-05-07T05:06:37.988Z,45.2
2018-05-07T05:07:18.595Z,45.2
2018-05-07T05:07:59.047Z,45.1
2018-05-07T05:08:39.578Z,45.01
2018-05-07T05:09:20.107Z,44.91
2018-05-07T05:10:00.634Z,45.1
2018-05-07T05:10:41.165Z,45.01
2018-05-07T05:11:21.693Z,44.91
2018-05-07T05:12:02.222Z,45.29
2018-05-07T05:12:42.748Z,45.29
2018-05-07T05:13:23.273Z,45.39
2018-05-07T05:14:03.809Z,45.29
2018-05-07T05:14:44.335Z,45.48
2018-05-07T05:15:24.861Z,45.2
2018-05-07T05:16:05.388Z,45.2
2018-05-07T05:16:45.913Z,45.01
2018-05-07T05:17:26.441Z,44.84
2018-05-07T05:18:06.968Z,44.74
2018-05-07T05:18:47.497Z,44.65
2018-05-07T05:19:28.025Z,44.84
2018-05-07T05:20:08.552Z,45.03
2018-05-07T05:20:49.085Z,45.12
2018-05-07T05:21:29.638Z,45.03
2018-05-07T05:22:10.142Z,44.93
2018-05-07T05:22:50.672Z,44.93
2018-05-07T05:23:31.243Z,44.65
2018-05-07T05:24:11.730Z,44.55
2018-05-07T05:24:52.262Z,44.74
2018-05-07T05:25:32.796Z,44.74
2018-05-07T05:26:13.326Z,44.86
2018-05-07T05:26:53.852Z,44.74
2018-05-07T05:27:34.382Z,44.84
2018-05-07T05:28:14.909Z,44.86
2018-05-07T05:28:55.457Z,44.76
2018-05-07T05:29:35.978Z,44.76
2018-05-07T05:30:16.485Z,44.76
2018-05-07T05:30:57.018Z,44.57
2018-05-07T05:31:37.544Z,44.67
2018-05-07T05:32:18.073Z,44.57
2018-05-07T05:32:58.595Z,44.57
2018-05-07T05:33:39.134Z,44.57
2018-05-07T05:34:19.653Z,44.57
2018-05-07T05:35:00.182Z,44.19
2018-05-07T05:35:40.719Z,44.57
2018-05-07T05:36:21.234Z,44.57
2018-05-07T05:37:01.756Z,44.57
2018-05-07T05:37:42.285Z,44.67
2018-05-07T05:38:22.819Z,44.5
2018-05-07T05:39:03.345Z,44.4
2018-05-07T05:39:43.872Z,44.5
2018-05-07T05:40:24.404Z,44.59
2018-05-07T05:41:04.931Z,44.31
2018-05-07T05:41:45.463Z,44.59
2018-05-07T05:42:25.993Z,44.5
2018-05-07T05:43:06.520Z,44.59
2018-05-07T05:43:47.139Z,44.43
2018-05-07T05:44:27.575Z,44.02
2018-05-07T05:45:08.101Z,44.33
2018-05-07T05:45:48.638Z,44.33
2018-05-07T05:46:29.165Z,44.43
2018-05-07T05:47:09.695Z,43.95
2018-05-07T05:47:50.224Z,44.52
2018-05-07T05:48:30.753Z,44.13
2018-05-07T05:49:11.282Z,43.97
2018-05-07T05:49:51.816Z,43.95
2018-05-07T05:50:32.341Z,43.97
2018-05-07T05:51:12.870Z,43.87
2018-05-07T05:51:53.399Z,43.59
2018-05-07T05:52:33.930Z,43.49
2018-05-07T05:53:14.457Z,43.68
2018-05-07T05:53:54.979Z,43.39
2018-05-07T05:54:35.502Z,43.6
2018-05-07T05:55:16.032Z,43.6
2018-05-07T05:55:56.562Z,43.7
2018-05-07T05:56:37.096Z,43.41
2018-05-07T05:57:17.621Z,43.6
2018-05-07T05:57:58.146Z,42.96
2018-05-07T05:58:38.672Z,43.05
2018-05-07T05:59:19.199Z,42.57
2018-05-07T05:59:59.727Z,42.88
2018-05-07T06:00:40.254Z,42.4
2018-05-07T06:01:20.780Z,42.5
2018-05-07T06:02:01.311Z,42.13
2018-05-07T06:02:41.839Z,42.33
2018-05-07T06:03:22.370Z,41.66
2018-05-07T06:04:02.924Z,41.87
2018-05-07T06:04:43.421Z,41.77
2018-05-07T06:05:23.950Z,41.87
2018-05-07T06:06:04.470Z,41.6
2018-05-07T06:06:44.994Z,41.5
2018-05-07T06:07:25.523Z,41.41
2018-05-07T06:08:06.057Z,41.22
2018-05-07T06:08:46.585Z,41.33
2018-05-07T06:09:27.113Z,41.24
2018-05-07T06:10:07.647Z,41.05
2018-05-07T06:10:48.175Z,40.95
2018-05-07T06:11:28.701Z,40.78
2018-05-07T06:12:09.231Z,40.78
2018-05-07T06:12:49.760Z,40.99
2018-05-07T06:13:30.292Z,40.51
2018-05-07T06:14:10.818Z,40.41
2018-05-07T06:14:51.428Z,40.41
2018-05-07T06:15:31.881Z,40.24
2018-05-07T06:16:12.409Z,40.05
2018-05-07T06:16:52.945Z,39.95
2018-05-07T06:17:33.475Z,39.95
2018-05-07T06:18:13.998Z,39.97
2018-05-07T06:18:54.524Z,39.78
2018-05-07T06:19:35.051Z,39.59
2018-05-07T06:20:15.569Z,39.49
2018-05-07T06:20:56.097Z,39.61
2018-05-07T06:21:36.633Z,39.51
2018-05-07T06:22:17.165Z,39.31
2018-05-07T06:22:57.700Z,39.61
2018-05-07T06:23:38.223Z,39.62
2018-05-07T06:24:18.757Z,39.72
2018-05-07T06:24:59.283Z,39.43
2018-05-07T06:25:39.818Z,39.14
2018-05-07T06:26:20.350Z,39.04
2018-05-07T06:27:00.879Z,39.16
2018-05-07T06:27:41.413Z,38.87
2018-05-07T06:28:21.940Z,38.97
2018-05-07T06:29:02.469Z,38.78
2018-05-07T06:29:43.006Z,38.58
2018-05-07T06:30:23.526Z,38.58
2018-05-07T06:31:04.060Z,38.89
2018-05-07T06:31:44.590Z,38.99
2018-05-07T06:32:25.115Z,38.6
2018-05-07T06:33:05.620Z,38.89
2018-05-07T06:33:46.156Z,38.89
2018-05-07T06:34:26.688Z,38.6
2018-05-07T06:35:07.193Z,38.81
2018-05-07T06:35:47.715Z,38.91
2018-05-07T06:36:28.214Z,38.71
2018-05-07T06:37:08.696Z,38.54
2018-05-07T06:37:49.217Z,38.54
2018-05-07T06:38:29.734Z,38.64
2018-05-07T06:39:10.255Z,38.64
2018-05-07T06:39:50.788Z,38.46
2018-05-07T06:40:31.316Z,38.66
2018-05-07T06:41:11.841Z,38.76
2018-05-07T06:41:52.382Z,38.39
2018-05-07T06:42:32.907Z,38.2
2018-05-07T06:43:13.431Z,37.9
2018-05-07T06:43:53.952Z,37.63
2018-05-07T06:44:34.481Z,37.63
2018-05-07T06:45:14.999Z,37.82
2018-05-07T06:45:55.607Z,37.63
2018-05-07T06:46:36.045Z,37.65
2018-05-07T06:47:16.567Z,37.85
2018-05-07T06:47:57.071Z,37.67
2018-05-07T06:48:37.607Z,37.57
2018-05-07T06:49:18.132Z,37.4
2018-05-07T06:49:58.657Z,37.13
2018-05-07T06:50:39.190Z,37.32
2018-05-07T06:51:19.698Z,36.83
2018-05-07T06:52:00.281Z,37.05
2018-05-07T06:52:40.748Z,36.46
2018-05-07T06:53:21.303Z,36.58
2018-05-07T06:54:01.825Z,36.21
2018-05-07T06:54:42.420Z,36.21
2018-05-07T06:55:22.887Z,35.64
2018-05-07T06:56:03.405Z,35.47
2018-05-07T06:56:43.935Z,35.86
2018-05-07T06:57:24.459Z,35.39
2018-05-07T06:58:04.999Z,34.72
2018-05-07T06:58:45.533Z,34.53
2018-05-07T06:59:26.052Z,34.55
2018-05-07T07:00:06.658Z,33.88
2018-05-07T07:00:47.101Z,33.43
2018-05-07T07:01:27.623Z,32.78
2018-05-07T07:02:08.192Z,32.48
2018-05-07T07:02:48.925Z,31.92
2018-05-07T07:03:29.213Z,31.65
2018-05-07T07:04:09.737Z,31.38
2018-05-07T07:04:50.267Z,30.9
2018-05-07T07:05:30.799Z,30.44
2018-05-07T07:06:11.334Z,29.68
2018-05-07T07:06:51.863Z,28.92
2018-05-07T07:07:32.433Z,28.75
2018-05-07T07:08:12.980Z,27.51
2018-05-07T07:08:53.465Z,27.05
2018-05-07T07:09:33.997Z,25.9
2018-05-07T07:10:14.523Z,25.24
2018-05-07T07:10:55.051Z,24.77
2018-05-07T07:11:35.583Z,23.91
2018-05-07T07:12:16.123Z,23.44
2018-05-07T07:12:56.655Z,23.06
2018-05-07T07:13:37.187Z,22.78
2018-05-07T07:14:17.720Z,22.6
2018-05-07T07:14:58.230Z,22.22
2018-05-07T07:15:38.739Z,21.84
2018-05-07T07:16:19.289Z,21.85
2018-05-07T07:16:59.802Z,21.46
2018-05-07T07:17:40.324Z,21.38
2018-05-07T07:18:20.854Z,21
2018-05-07T07:19:01.435Z,21.11
2018-05-07T07:19:41.964Z,20.92
2018-05-07T07:20:22.516Z,20.64
2018-05-07T07:21:03.036Z,20.35
2018-05-07T07:21:43.625Z,20.46
2018-05-07T07:22:24.108Z,20.37
2018-05-07T07:23:04.635Z,19.98
2018-05-07T07:23:45.170Z,20.68
2018-05-07T07:24:25.679Z,20.39
2018-05-07T07:25:06.215Z,20.79
2018-05-07T07:25:46.754Z,20.79
2018-05-07T07:26:27.289Z,20.9
2018-05-07T07:27:07.818Z,21.2
2018-05-07T07:27:48.346Z,21.5
2018-05-07T07:28:28.884Z,21.7
2018-05-07T07:29:09.413Z,22
2018-05-07T07:29:49.943Z,22.11
2018-05-07T07:30:30.479Z,21.92
2018-05-07T07:31:11.016Z,21.54
2018-05-07T07:31:51.535Z,21.56
2018-05-07T07:32:32.060Z,21.08
2018-05-07T07:33:12.577Z,20.61
2018-05-07T07:33:53.216Z,20.53
2018-05-07T07:34:33.643Z,19.95
2018-05-07T07:35:14.175Z,19.67
2018-05-07T07:35:54.703Z,19.29
2018-05-07T07:36:35.232Z,18.8
2018-05-07T07:37:15.767Z,18.51
2018-05-07T07:37:56.326Z,18.62
2018-05-07T07:38:36.845Z,18.53
2018-05-07T07:39:17.377Z,18.54
2018-05-07T07:39:57.923Z,18.15
2018-05-07T07:40:38.457Z,17.86
2018-05-07T07:41:19.002Z,17.97
2018-05-07T07:41:59.536Z,18.28
2018-05-07T07:42:40.074Z,17.89
2018-05-07T07:43:20.615Z,17.69
2018-05-07T07:44:01.151Z,17.61
2018-05-07T07:44:41.695Z,17.52
2018-05-07T07:45:22.229Z,17.43
2018-05-07T07:46:02.754Z,17.33
2018-05-07T07:46:43.295Z,17.24
2018-05-07T07:47:23.825Z,17.55
2018-05-07T07:48:04.363Z,16.95
2018-05-07T07:48:44.899Z,17.36
2018-05-07T07:49:25.415Z,17.07
2018-05-07T07:50:05.953Z,16.67
2018-05-07T07:50:46.506Z,17.08
2018-05-07T07:51:27.042Z,16.59
2018-05-07T07:52:07.580Z,16.7
2018-05-07T07:52:48.104Z,16.6
2018-05-07T07:53:28.705Z,16.4
2018-05-07T07:54:09.123Z,16.41
2018-05-07T07:54:49.868Z,16.31
2018-05-07T07:55:30.409Z,16.01
2018-05-07T07:56:10.950Z,16.02
2018-05-07T07:56:51.495Z,16.14
2018-05-07T07:57:32.012Z,16.35
2018-05-07T07:58:12.563Z,16.06
2018-05-07T07:58:53.101Z,15.66
2018-05-07T07:59:33.634Z,15.98
2018-05-07T08:00:14.172Z,15.67
2018-05-07T08:00:54.708Z,15.38
2018-05-07T08:01:35.248Z,15.39
2018-05-07T08:02:15.768Z,15.09
2018-05-07T08:02:56.288Z,15.1
2018-05-07T08:03:36.828Z,14.79
2018-05-07T08:04:17.364Z,14.9
2018-05-07T08:04:57.883Z,14.5
2018-05-07T08:05:38.414Z,14.5
2018-05-07T08:06:18.954Z,14.4
2018-05-07T08:06:59.493Z,14.62
2018-05-07T08:07:40.008Z,14.22
2018-05-07T08:08:20.535Z,14.33
2018-05-07T08:09:01.031Z,14.23
2018-05-07T08:09:41.550Z,13.92
2018-05-07T08:10:22.086Z,14.04
2018-05-07T08:11:02.593Z,14.04
2018-05-07T08:11:43.121Z,14.05
2018-05-07T08:12:23.848Z,13.75
2018-05-07T08:13:04.163Z,13.64
2018-05-07T08:13:44.682Z,13.96
2018-05-07T08:14:25.192Z,13.86
2018-05-07T08:15:05.709Z,13.55
2018-05-07T08:15:46.225Z,13.86
2018-05-07T08:16:26.772Z,13.55
2018-05-07T08:17:07.297Z,13.35
2018-05-07T08:17:47.837Z,13.34
2018-05-07T08:18:28.419Z,13.66
2018-05-07T08:19:08.924Z,13.67
2018-05-07T08:19:49.477Z,13.46
2018-05-07T08:20:30.017Z,13.05
2018-05-07T08:21:10.563Z,13.15
2018-05-07T08:21:51.110Z,13.26
2018-05-07T08:22:31.647Z,13.06
2018-05-07T08:23:12.194Z,13.17
2018-05-07T08:23:52.733Z,13.38
2018-05-07T08:24:33.286Z,12.96
2018-05-07T08:25:13.822Z,12.96
2018-05-07T08:25:54.365Z,12.86
2018-05-07T08:26:34.903Z,12.66
2018-05-07T08:27:15.446Z,12.77
2018-05-07T08:27:55.988Z,12.55
2018-05-07T08:28:36.539Z,12.66
2018-05-07T08:29:17.078Z,12.46
2018-05-07T08:29:57.688Z,12.26
2018-05-07T08:30:38.157Z,12.26
2018-05-07T08:31:18.700Z,12.05
2018-05-07T08:31:59.241Z,12.05
2018-05-07T08:32:39.784Z,12.16
2018-05-07T08:33:20.329Z,12.06
2018-05-07T08:34:00.871Z,11.85
2018-05-07T08:34:41.413Z,12.06
2018-05-07T08:35:21.960Z,12.16
2018-05-07T08:36:02.503Z,12.27
2018-05-07T08:36:43.063Z,12.05
2018-05-07T08:37:23.613Z,12.26
2018-05-07T08:38:04.144Z,12.15
2018-05-07T08:38:44.697Z,12.04
2018-05-07T08:39:25.234Z,12.04
2018-05-07T08:40:05.779Z,12.25
2018-05-07T08:40:46.324Z,12.14
2018-05-07T08:41:26.860Z,12.24
2018-05-07T08:42:07.394Z,12.14
2018-05-07T08:42:47.943Z,12.45
2018-05-07T08:43:28.488Z,12.14
2018-05-07T08:44:09.025Z,12.14